sensor_id;sensor_type;location;lat;lon;timestamp;pressure;altitude;pressure_sealevel;temperature;humidity
49645;BME280;36494;50.730;-1.932;2023-04-10T00:00:51;101022.70;;;10.26;100.00
49645;BME280;36494;50.730;-1.932;2023-04-10T00:03:16;101018.35;;;10.35;100.00
49645;BME280;36494;50.730;-1.932;2023-04-10T00:05:42;101000.61;;;10.37;100.00
49645;BME280;36494;50.730;-1.932;2023-04-10T00:08:08;100998.57;;;10.31;100.00
49645;BME280;36494;50.730;-1.932;2023-04-10T00:10:33;100994.49;;;10.38;100.00
49645;BME280;36494;50.730;-1.932;2023-04-10T00:12:58;100995.08;;;10.29;100.00
49645;BME280;36494;50.730;-1.932;2023-04-10T00:15:23;100998.06;;;10.30;100.00
49645;BME280;36494;50.730;-1.932;2023-04-10T00:17:49;101001.18;;;10.26;100.00
49645;BME280;36494;50.730;-1.932;2023-04-10T00:20:15;100996.33;;;10.29;100.00
49645;BME280;36494;50.730;-1.932;2023-04-10T00:22:40;100995.41;;;10.25;100.00
49645;BME280;36494;50.730;-1.932;2023-04-10T00:25:06;100988.65;;;10.23;100.00
49645;BME280;36494;50.730;-1.932;2023-04-10T00:27:30;100984.73;;;10.23;100.00
49645;BME280;36494;50.730;-1.932;2023-04-10T00:29:56;100979.65;;;10.23;100.00
49645;BME280;36494;50.730;-1.932;2023-04-10T00:32:22;100976.22;;;10.25;100.00
49645;BME280;36494;50.730;-1.932;2023-04-10T00:34:47;100972.73;;;10.19;100.00
49645;BME280;36494;50.730;-1.932;2023-04-10T00:37:12;100968.87;;;10.25;100.00
49645;BME280;36494;50.730;-1.932;2023-04-10T00:39:38;100968.17;;;10.24;100.00
49645;BME280;36494;50.730;-1.932;2023-04-10T00:42:04;100964.52;;;10.30;100.00
49645;BME280;36494;50.730;-1.932;2023-04-10T00:44:29;100961.65;;;10.31;100.00
49645;BME280;36494;50.730;-1.932;2023-04-10T00:46:54;100957.97;;;10.26;100.00
49645;BME280;36494;50.730;-1.932;2023-04-10T00:49:20;100951.83;;;10.32;100.00
49645;BME280;36494;50.730;-1.932;2023-04-10T00:51:45;100949.99;;;10.27;100.00
49645;BME280;36494;50.730;-1.932;2023-04-10T00:54:11;100943.38;;;10.22;100.00
49645;BME280;36494;50.730;-1.932;2023-04-10T00:56:36;100941.73;;;10.28;100.00
49645;BME280;36494;50.730;-1.932;2023-04-10T00:59:01;100941.11;;;10.32;100.00
49645;BME280;36494;50.730;-1.932;2023-04-10T01:01:26;100940.21;;;10.29;100.00
49645;BME280;36494;50.730;-1.932;2023-04-10T01:03:53;100938.69;;;10.33;100.00
49645;BME280;36494;50.730;-1.932;2023-04-10T01:06:26;100938.78;;;10.34;100.00
49645;BME280;36494;50.730;-1.932;2023-04-10T01:08:48;100934.84;;;10.34;100.00
49645;BME280;36494;50.730;-1.932;2023-04-10T01:11:12;100931.20;;;10.29;100.00
49645;BME280;36494;50.730;-1.932;2023-04-10T01:13:40;100925.78;;;10.28;100.00
49645;BME280;36494;50.730;-1.932;2023-04-10T01:16:04;100925.92;;;10.29;100.00
49645;BME280;36494;50.730;-1.932;2023-04-10T01:18:28;100923.74;;;10.23;100.00
49645;BME280;36494;50.730;-1.932;2023-04-10T01:20:49;100921.00;;;10.16;100.00
49645;BME280;36494;50.730;-1.932;2023-04-10T01:23:35;100921.78;;;10.29;100.00
49645;BME280;36494;50.730;-1.932;2023-04-10T01:25:43;100916.61;;;10.29;100.00
49645;BME280;36494;50.730;-1.932;2023-04-10T01:28:20;100908.09;;;10.23;100.00
49645;BME280;36494;50.730;-1.932;2023-04-10T01:30:31;100901.77;;;10.24;100.00
49645;BME280;36494;50.730;-1.932;2023-04-10T01:32:58;100899.38;;;10.18;100.00
49645;BME280;36494;50.730;-1.932;2023-04-10T01:35:22;100896.85;;;10.22;100.00
49645;BME280;36494;50.730;-1.932;2023-04-10T01:37:47;100895.32;;;10.18;100.00
49645;BME280;36494;50.730;-1.932;2023-04-10T01:40:14;100894.99;;;10.28;100.00
49645;BME280;36494;50.730;-1.932;2023-04-10T01:42:42;100893.54;;;10.19;100.00
49645;BME280;36494;50.730;-1.932;2023-04-10T01:45:06;100885.19;;;10.26;100.00
49645;BME280;36494;50.730;-1.932;2023-04-10T01:47:28;100880.63;;;10.22;100.00
49645;BME280;36494;50.730;-1.932;2023-04-10T01:49:55;100879.62;;;10.25;100.00
49645;BME280;36494;50.730;-1.932;2023-04-10T01:52:20;100873.76;;;10.24;100.00
49645;BME280;36494;50.730;-1.932;2023-04-10T01:54:45;100867.52;;;10.28;100.00
49645;BME280;36494;50.730;-1.932;2023-04-10T01:57:09;100867.84;;;10.26;100.00
49645;BME280;36494;50.730;-1.932;2023-04-10T01:59:36;100862.90;;;10.27;100.00
49645;BME280;36494;50.730;-1.932;2023-04-10T02:02:00;100858.93;;;10.32;100.00
49645;BME280;36494;50.730;-1.932;2023-04-10T02:04:25;100859.07;;;10.31;100.00
49645;BME280;36494;50.730;-1.932;2023-04-10T02:06:58;100858.55;;;10.32;100.00
49645;BME280;36494;50.730;-1.932;2023-04-10T02:09:22;100856.24;;;10.36;100.00
49645;BME280;36494;50.730;-1.932;2023-04-10T02:11:46;100858.49;;;10.30;100.00
49645;BME280;36494;50.730;-1.932;2023-04-10T02:14:10;100856.13;;;10.27;100.00
49645;BME280;36494;50.730;-1.932;2023-04-10T02:16:32;100854.38;;;10.30;100.00
49645;BME280;36494;50.730;-1.932;2023-04-10T02:18:58;100857.70;;;10.31;100.00
49645;BME280;36494;50.730;-1.932;2023-04-10T02:21:23;100868.85;;;10.26;100.00
49645;BME280;36494;50.730;-1.932;2023-04-10T02:23:48;100873.38;;;10.24;100.00
49645;BME280;36494;50.730;-1.932;2023-04-10T02:26:13;100875.29;;;10.25;100.00
49645;BME280;36494;50.730;-1.932;2023-04-10T02:28:39;100884.61;;;9.99;100.00
49645;BME280;36494;50.730;-1.932;2023-04-10T02:31:05;100875.47;;;9.95;100.00
49645;BME280;36494;50.730;-1.932;2023-04-10T02:33:30;100869.47;;;10.06;100.00
49645;BME280;36494;50.730;-1.932;2023-04-10T02:35:55;100864.74;;;10.11;100.00
49645;BME280;36494;50.730;-1.932;2023-04-10T02:38:20;100857.81;;;10.07;100.00
49645;BME280;36494;50.730;-1.932;2023-04-10T02:40:45;100856.18;;;10.07;100.00
49645;BME280;36494;50.730;-1.932;2023-04-10T02:43:11;100857.13;;;10.06;100.00
49645;BME280;36494;50.730;-1.932;2023-04-10T02:45:36;100855.53;;;10.10;100.00
49645;BME280;36494;50.730;-1.932;2023-04-10T02:48:04;100853.41;;;10.07;100.00
49645;BME280;36494;50.730;-1.932;2023-04-10T02:50:27;100855.80;;;10.11;100.00
49645;BME280;36494;50.730;-1.932;2023-04-10T02:52:52;100856.13;;;10.06;100.00
49645;BME280;36494;50.730;-1.932;2023-04-10T02:55:17;100850.78;;;10.09;100.00
49645;BME280;36494;50.730;-1.932;2023-04-10T02:57:43;100850.99;;;10.06;100.00
49645;BME280;36494;50.730;-1.932;2023-04-10T03:00:09;100854.57;;;10.10;100.00
49645;BME280;36494;50.730;-1.932;2023-04-10T03:02:33;100849.26;;;10.08;100.00
49645;BME280;36494;50.730;-1.932;2023-04-10T03:04:59;100846.22;;;10.12;100.00
49645;BME280;36494;50.730;-1.932;2023-04-10T03:07:24;100845.65;;;10.11;100.00
49645;BME280;36494;50.730;-1.932;2023-04-10T03:09:49;100846.08;;;10.11;100.00
49645;BME280;36494;50.730;-1.932;2023-04-10T03:12:14;100848.49;;;10.13;100.00
49645;BME280;36494;50.730;-1.932;2023-04-10T03:14:40;100842.17;;;10.17;100.00
49645;BME280;36494;50.730;-1.932;2023-04-10T03:17:05;100835.40;;;10.17;100.00
49645;BME280;36494;50.730;-1.932;2023-04-10T03:19:31;100836.08;;;10.12;100.00
49645;BME280;36494;50.730;-1.932;2023-04-10T03:21:56;100823.20;;;10.13;100.00
49645;BME280;36494;50.730;-1.932;2023-04-10T03:24:21;100819.30;;;10.11;100.00
49645;BME280;36494;50.730;-1.932;2023-04-10T03:26:46;100819.63;;;10.08;100.00
49645;BME280;36494;50.730;-1.932;2023-04-10T03:29:11;100816.08;;;10.08;100.00
49645;BME280;36494;50.730;-1.932;2023-04-10T03:31:36;100817.34;;;10.08;100.00
49645;BME280;36494;50.730;-1.932;2023-04-10T03:34:02;100817.28;;;10.06;100.00
49645;BME280;36494;50.730;-1.932;2023-04-10T03:36:27;100815.20;;;10.06;100.00
49645;BME280;36494;50.730;-1.932;2023-04-10T03:38:52;100815.48;;;10.04;100.00
49645;BME280;36494;50.730;-1.932;2023-04-10T03:41:17;100815.35;;;10.10;100.00
49645;BME280;36494;50.730;-1.932;2023-04-10T03:43:43;100808.10;;;10.10;100.00
49645;BME280;36494;50.730;-1.932;2023-04-10T03:46:08;100805.02;;;10.13;100.00
49645;BME280;36494;50.730;-1.932;2023-04-10T03:48:33;100799.37;;;10.10;100.00
49645;BME280;36494;50.730;-1.932;2023-04-10T03:50:58;100791.71;;;10.11;100.00
49645;BME280;36494;50.730;-1.932;2023-04-10T03:53:24;100788.69;;;10.13;100.00
49645;BME280;36494;50.730;-1.932;2023-04-10T03:55:50;100785.31;;;10.15;100.00
49645;BME280;36494;50.730;-1.932;2023-04-10T03:58:15;100785.23;;;10.18;100.00
49645;BME280;36494;50.730;-1.932;2023-04-10T04:00:40;100783.30;;;10.13;100.00
49645;BME280;36494;50.730;-1.932;2023-04-10T04:03:05;100774.12;;;10.19;100.00
49645;BME280;36494;50.730;-1.932;2023-04-10T04:05:31;100772.35;;;10.22;100.00
49645;BME280;36494;50.730;-1.932;2023-04-10T04:07:57;100771.32;;;10.08;100.00
49645;BME280;36494;50.730;-1.932;2023-04-10T04:10:22;100767.50;;;10.12;100.00
49645;BME280;36494;50.730;-1.932;2023-04-10T04:12:47;100761.80;;;10.07;100.00
49645;BME280;36494;50.730;-1.932;2023-04-10T04:15:13;100757.70;;;10.09;100.00
49645;BME280;36494;50.730;-1.932;2023-04-10T04:17:38;100757.28;;;10.08;100.00
49645;BME280;36494;50.730;-1.932;2023-04-10T04:20:04;100758.07;;;10.06;100.00
49645;BME280;36494;50.730;-1.932;2023-04-10T04:22:29;100755.04;;;10.03;100.00
49645;BME280;36494;50.730;-1.932;2023-04-10T04:24:54;100754.45;;;10.05;100.00
49645;BME280;36494;50.730;-1.932;2023-04-10T04:27:19;100754.23;;;10.09;100.00
49645;BME280;36494;50.730;-1.932;2023-04-10T04:29:44;100748.63;;;10.06;100.00
49645;BME280;36494;50.730;-1.932;2023-04-10T04:32:10;100747.40;;;10.00;100.00
49645;BME280;36494;50.730;-1.932;2023-04-10T04:34:35;100739.90;;;10.05;100.00
49645;BME280;36494;50.730;-1.932;2023-04-10T04:37:00;100731.26;;;10.02;100.00
49645;BME280;36494;50.730;-1.932;2023-04-10T04:39:25;100719.32;;;10.02;100.00
49645;BME280;36494;50.730;-1.932;2023-04-10T04:41:51;100717.03;;;10.06;100.00
49645;BME280;36494;50.730;-1.932;2023-04-10T04:44:17;100710.48;;;10.03;100.00
49645;BME280;36494;50.730;-1.932;2023-04-10T04:46:41;100709.66;;;10.01;100.00
49645;BME280;36494;50.730;-1.932;2023-04-10T04:49:06;100699.03;;;9.98;100.00
49645;BME280;36494;50.730;-1.932;2023-04-10T04:51:32;100705.07;;;9.92;100.00
49645;BME280;36494;50.730;-1.932;2023-04-10T04:53:57;100698.19;;;9.89;100.00
49645;BME280;36494;50.730;-1.932;2023-04-10T04:56:23;100699.82;;;9.93;100.00
49645;BME280;36494;50.730;-1.932;2023-04-10T04:58:48;100694.49;;;9.90;100.00
49645;BME280;36494;50.730;-1.932;2023-04-10T05:01:13;100688.59;;;9.87;100.00
49645;BME280;36494;50.730;-1.932;2023-04-10T05:03:38;100691.66;;;9.84;100.00
49645;BME280;36494;50.730;-1.932;2023-04-10T05:06:03;100676.57;;;9.89;100.00
49645;BME280;36494;50.730;-1.932;2023-04-10T05:08:28;100676.06;;;9.83;100.00
49645;BME280;36494;50.730;-1.932;2023-04-10T05:10:53;100673.52;;;9.78;100.00
49645;BME280;36494;50.730;-1.932;2023-04-10T05:13:18;100668.43;;;9.73;100.00
49645;BME280;36494;50.730;-1.932;2023-04-10T05:15:44;100670.22;;;9.83;100.00
49645;BME280;36494;50.730;-1.932;2023-04-10T05:18:09;100670.57;;;9.81;100.00
49645;BME280;36494;50.730;-1.932;2023-04-10T05:20:34;100667.52;;;9.84;100.00
49645;BME280;36494;50.730;-1.932;2023-04-10T05:23:00;100669.50;;;9.80;100.00
49645;BME280;36494;50.730;-1.932;2023-04-10T05:25:25;100669.94;;;9.77;100.00
49645;BME280;36494;50.730;-1.932;2023-04-10T05:27:50;100670.92;;;9.87;100.00
49645;BME280;36494;50.730;-1.932;2023-04-10T05:30:16;100663.11;;;9.90;100.00
49645;BME280;36494;50.730;-1.932;2023-04-10T05:32:41;100663.01;;;9.95;100.00
49645;BME280;36494;50.730;-1.932;2023-04-10T05:35:07;100654.18;;;9.95;100.00
49645;BME280;36494;50.730;-1.932;2023-04-10T05:37:32;100659.00;;;9.97;100.00
49645;BME280;36494;50.730;-1.932;2023-04-10T05:39:58;100659.77;;;9.97;100.00
49645;BME280;36494;50.730;-1.932;2023-04-10T05:42:23;100656.47;;;9.96;100.00
49645;BME280;36494;50.730;-1.932;2023-04-10T05:44:48;100653.61;;;9.94;100.00
49645;BME280;36494;50.730;-1.932;2023-04-10T05:47:13;100650.01;;;9.98;100.00
49645;BME280;36494;50.730;-1.932;2023-04-10T05:49:39;100647.31;;;9.95;100.00
49645;BME280;36494;50.730;-1.932;2023-04-10T05:52:04;100644.68;;;9.98;100.00
49645;BME280;36494;50.730;-1.932;2023-04-10T05:54:29;100638.80;;;9.95;100.00
49645;BME280;36494;50.730;-1.932;2023-04-10T05:56:55;100644.08;;;9.95;100.00
49645;BME280;36494;50.730;-1.932;2023-04-10T05:59:20;100645.68;;;10.01;100.00
49645;BME280;36494;50.730;-1.932;2023-04-10T06:01:45;100637.87;;;10.01;100.00
49645;BME280;36494;50.730;-1.932;2023-04-10T06:04:11;100641.64;;;10.03;100.00
49645;BME280;36494;50.730;-1.932;2023-04-10T06:06:37;100639.87;;;10.09;100.00
49645;BME280;36494;50.730;-1.932;2023-04-10T06:09:01;100638.32;;;10.08;100.00
49645;BME280;36494;50.730;-1.932;2023-04-10T06:11:27;100639.48;;;10.03;100.00
49645;BME280;36494;50.730;-1.932;2023-04-10T06:13:52;100631.35;;;10.06;100.00
49645;BME280;36494;50.730;-1.932;2023-04-10T06:16:17;100628.16;;;10.04;100.00
49645;BME280;36494;50.730;-1.932;2023-04-10T06:18:43;100624.88;;;10.03;100.00
49645;BME280;36494;50.730;-1.932;2023-04-10T06:21:08;100620.69;;;10.04;100.00
49645;BME280;36494;50.730;-1.932;2023-04-10T06:23:33;100625.65;;;10.06;100.00
49645;BME280;36494;50.730;-1.932;2023-04-10T06:25:59;100616.67;;;9.99;100.00
49645;BME280;36494;50.730;-1.932;2023-04-10T06:28:24;100611.11;;;10.01;100.00
49645;BME280;36494;50.730;-1.932;2023-04-10T06:30:49;100612.75;;;10.05;100.00
49645;BME280;36494;50.730;-1.932;2023-04-10T06:33:15;100620.06;;;10.07;100.00
49645;BME280;36494;50.730;-1.932;2023-04-10T06:35:41;100608.83;;;10.03;100.00
49645;BME280;36494;50.730;-1.932;2023-04-10T06:38:06;100615.48;;;10.07;100.00
49645;BME280;36494;50.730;-1.932;2023-04-10T06:40:31;100606.65;;;10.03;100.00
49645;BME280;36494;50.730;-1.932;2023-04-10T06:42:56;100603.15;;;9.99;100.00
49645;BME280;36494;50.730;-1.932;2023-04-10T06:45:21;100602.92;;;9.97;100.00
49645;BME280;36494;50.730;-1.932;2023-04-10T06:47:47;100604.53;;;9.99;100.00
49645;BME280;36494;50.730;-1.932;2023-04-10T06:50:12;100593.87;;;9.99;100.00
49645;BME280;36494;50.730;-1.932;2023-04-10T06:52:38;100596.90;;;9.99;100.00
49645;BME280;36494;50.730;-1.932;2023-04-10T06:55:04;100594.66;;;10.03;100.00
49645;BME280;36494;50.730;-1.932;2023-04-10T06:57:29;100597.00;;;10.02;100.00
49645;BME280;36494;50.730;-1.932;2023-04-10T06:59:54;100582.83;;;9.96;100.00
49645;BME280;36494;50.730;-1.932;2023-04-10T07:02:19;100592.49;;;9.94;100.00
49645;BME280;36494;50.730;-1.932;2023-04-10T07:04:45;100584.87;;;9.99;100.00
49645;BME280;36494;50.730;-1.932;2023-04-10T07:07:10;100581.53;;;10.00;100.00
49645;BME280;36494;50.730;-1.932;2023-04-10T07:09:35;100572.97;;;9.97;100.00
49645;BME280;36494;50.730;-1.932;2023-04-10T07:12:01;100574.38;;;9.95;100.00
49645;BME280;36494;50.730;-1.932;2023-04-10T07:14:26;100568.59;;;9.96;100.00
49645;BME280;36494;50.730;-1.932;2023-04-10T07:16:51;100574.84;;;9.96;100.00
49645;BME280;36494;50.730;-1.932;2023-04-10T07:19:17;100565.37;;;9.96;100.00
49645;BME280;36494;50.730;-1.932;2023-04-10T07:21:42;100561.73;;;9.98;100.00
49645;BME280;36494;50.730;-1.932;2023-04-10T07:24:08;100566.95;;;9.96;100.00
49645;BME280;36494;50.730;-1.932;2023-04-10T07:26:33;100568.41;;;10.02;100.00
49645;BME280;36494;50.730;-1.932;2023-04-10T07:28:59;100567.78;;;9.97;100.00
49645;BME280;36494;50.730;-1.932;2023-04-10T07:31:24;100561.29;;;10.00;100.00
49645;BME280;36494;50.730;-1.932;2023-04-10T07:33:50;100567.07;;;10.06;100.00
49645;BME280;36494;50.730;-1.932;2023-04-10T07:36:15;100561.88;;;10.03;100.00
49645;BME280;36494;50.730;-1.932;2023-04-10T07:38:41;100565.19;;;10.05;100.00
49645;BME280;36494;50.730;-1.932;2023-04-10T07:41:06;100562.70;;;10.04;100.00
49645;BME280;36494;50.730;-1.932;2023-04-10T07:43:31;100563.19;;;10.08;100.00
49645;BME280;36494;50.730;-1.932;2023-04-10T07:45:57;100557.30;;;10.07;100.00
49645;BME280;36494;50.730;-1.932;2023-04-10T07:48:23;100553.46;;;10.06;100.00
49645;BME280;36494;50.730;-1.932;2023-04-10T07:50:48;100558.62;;;10.06;100.00
49645;BME280;36494;50.730;-1.932;2023-04-10T07:53:14;100555.58;;;10.12;100.00
49645;BME280;36494;50.730;-1.932;2023-04-10T07:55:40;100561.26;;;10.15;100.00
49645;BME280;36494;50.730;-1.932;2023-04-10T07:58:04;100556.41;;;10.19;100.00
49645;BME280;36494;50.730;-1.932;2023-04-10T08:00:30;100550.76;;;10.16;100.00
49645;BME280;36494;50.730;-1.932;2023-04-10T08:02:56;100548.86;;;10.20;100.00
49645;BME280;36494;50.730;-1.932;2023-04-10T08:05:21;100548.48;;;10.18;100.00
49645;BME280;36494;50.730;-1.932;2023-04-10T08:07:46;100541.44;;;10.16;100.00
49645;BME280;36494;50.730;-1.932;2023-04-10T08:10:12;100543.49;;;10.19;100.00
49645;BME280;36494;50.730;-1.932;2023-04-10T08:12:38;100546.36;;;10.21;100.00
49645;BME280;36494;50.730;-1.932;2023-04-10T08:15:04;100548.54;;;10.20;100.00
49645;BME280;36494;50.730;-1.932;2023-04-10T08:17:29;100550.71;;;10.17;100.00
49645;BME280;36494;50.730;-1.932;2023-04-10T08:19:54;100556.33;;;10.23;100.00
49645;BME280;36494;50.730;-1.932;2023-04-10T08:22:20;100554.40;;;10.20;100.00
49645;BME280;36494;50.730;-1.932;2023-04-10T08:24:45;100550.52;;;10.26;100.00
49645;BME280;36494;50.730;-1.932;2023-04-10T08:27:11;100557.56;;;10.25;100.00
49645;BME280;36494;50.730;-1.932;2023-04-10T08:29:36;100552.66;;;10.23;100.00
49645;BME280;36494;50.730;-1.932;2023-04-10T08:32:02;100550.37;;;10.22;100.00
49645;BME280;36494;50.730;-1.932;2023-04-10T08:34:27;100558.81;;;10.30;100.00
49645;BME280;36494;50.730;-1.932;2023-04-10T08:36:53;100550.30;;;10.29;100.00
49645;BME280;36494;50.730;-1.932;2023-04-10T08:39:18;100551.04;;;10.29;100.00
49645;BME280;36494;50.730;-1.932;2023-04-10T08:41:43;100558.75;;;10.33;100.00
49645;BME280;36494;50.730;-1.932;2023-04-10T08:44:09;100559.71;;;10.34;100.00
49645;BME280;36494;50.730;-1.932;2023-04-10T08:46:35;100551.68;;;10.39;100.00
49645;BME280;36494;50.730;-1.932;2023-04-10T08:49:01;100550.19;;;10.45;100.00
49645;BME280;36494;50.730;-1.932;2023-04-10T08:51:29;100559.67;;;10.46;100.00
49645;BME280;36494;50.730;-1.932;2023-04-10T08:53:50;100556.24;;;10.42;100.00
49645;BME280;36494;50.730;-1.932;2023-04-10T08:56:17;100554.45;;;10.45;100.00
49645;BME280;36494;50.730;-1.932;2023-04-10T08:58:40;100553.90;;;10.46;100.00
49645;BME280;36494;50.730;-1.932;2023-04-10T09:01:06;100548.51;;;10.52;100.00
49645;BME280;36494;50.730;-1.932;2023-04-10T09:03:31;100549.08;;;10.48;100.00
49645;BME280;36494;50.730;-1.932;2023-04-10T09:05:56;100539.34;;;10.55;100.00
49645;BME280;36494;50.730;-1.932;2023-04-10T09:08:22;100534.64;;;10.57;100.00
49645;BME280;36494;50.730;-1.932;2023-04-10T09:10:47;100532.90;;;10.62;100.00
49645;BME280;36494;50.730;-1.932;2023-04-10T09:13:12;100529.05;;;10.63;100.00
49645;BME280;36494;50.730;-1.932;2023-04-10T09:18:03;100527.94;;;10.76;100.00
49645;BME280;36494;50.730;-1.932;2023-04-10T09:20:30;100528.43;;;10.69;100.00
49645;BME280;36494;50.730;-1.932;2023-04-10T09:22:54;100518.59;;;10.78;100.00
49645;BME280;36494;50.730;-1.932;2023-04-10T09:25:30;100504.62;;;10.80;100.00
49645;BME280;36494;50.730;-1.932;2023-04-10T09:27:46;100504.35;;;10.86;100.00
49645;BME280;36494;50.730;-1.932;2023-04-10T09:30:16;100504.92;;;10.92;100.00
49645;BME280;36494;50.730;-1.932;2023-04-10T09:32:39;100502.66;;;11.00;100.00
49645;BME280;36494;50.730;-1.932;2023-04-10T09:35:02;100499.07;;;11.07;100.00
49645;BME280;36494;50.730;-1.932;2023-04-10T09:37:30;100495.20;;;11.10;100.00
49645;BME280;36494;50.730;-1.932;2023-04-10T09:39:53;100491.60;;;11.20;100.00
49645;BME280;36494;50.730;-1.932;2023-04-10T09:42:28;100484.20;;;11.21;100.00
49645;BME280;36494;50.730;-1.932;2023-04-10T09:44:44;100485.09;;;11.21;100.00
49645;BME280;36494;50.730;-1.932;2023-04-10T09:47:16;100489.96;;;11.31;100.00
49645;BME280;36494;50.730;-1.932;2023-04-10T09:49:44;100497.27;;;11.41;100.00
49645;BME280;36494;50.730;-1.932;2023-04-10T09:52:10;100500.18;;;11.41;100.00
49645;BME280;36494;50.730;-1.932;2023-04-10T09:54:35;100498.00;;;11.27;100.00
49645;BME280;36494;50.730;-1.932;2023-04-10T09:56:52;100508.45;;;11.28;100.00
49645;BME280;36494;50.730;-1.932;2023-04-10T09:59:17;100506.88;;;11.19;100.00
49645;BME280;36494;50.730;-1.932;2023-04-10T10:01:44;100508.56;;;11.31;100.00
49645;BME280;36494;50.730;-1.932;2023-04-10T10:04:08;100506.20;;;11.24;100.00
49645;BME280;36494;50.730;-1.932;2023-04-10T10:06:33;100502.65;;;11.17;100.00
49645;BME280;36494;50.730;-1.932;2023-04-10T10:09:02;100505.85;;;11.17;100.00
49645;BME280;36494;50.730;-1.932;2023-04-10T10:11:25;100495.90;;;11.16;100.00
49645;BME280;36494;50.730;-1.932;2023-04-10T10:13:51;100495.70;;;11.18;100.00
49645;BME280;36494;50.730;-1.932;2023-04-10T10:16:20;100503.15;;;11.22;100.00
49645;BME280;36494;50.730;-1.932;2023-04-10T10:18:44;100490.46;;;11.16;100.00
49645;BME280;36494;50.730;-1.932;2023-04-10T10:21:08;100472.32;;;11.30;100.00
49645;BME280;36494;50.730;-1.932;2023-04-10T10:23:32;100476.51;;;11.37;100.00
49645;BME280;36494;50.730;-1.932;2023-04-10T10:25:58;100478.42;;;11.31;100.00
49645;BME280;36494;50.730;-1.932;2023-04-10T10:28:23;100489.36;;;11.39;100.00
49645;BME280;36494;50.730;-1.932;2023-04-10T10:30:47;100496.33;;;11.46;100.00
49645;BME280;36494;50.730;-1.932;2023-04-10T10:33:13;100484.01;;;11.45;100.00
49645;BME280;36494;50.730;-1.932;2023-04-10T10:35:38;100483.74;;;11.46;100.00
49645;BME280;36494;50.730;-1.932;2023-04-10T10:38:04;100484.62;;;11.42;100.00
49645;BME280;36494;50.730;-1.932;2023-04-10T10:40:31;100481.34;;;11.54;100.00
49645;BME280;36494;50.730;-1.932;2023-04-10T10:43:06;100480.55;;;11.54;100.00
49645;BME280;36494;50.730;-1.932;2023-04-10T10:45:24;100481.21;;;11.58;100.00
49645;BME280;36494;50.730;-1.932;2023-04-10T10:47:50;100477.25;;;11.54;100.00
49645;BME280;36494;50.730;-1.932;2023-04-10T10:50:10;100479.49;;;11.61;100.00
49645;BME280;36494;50.730;-1.932;2023-04-10T10:52:37;100473.79;;;11.64;100.00
49645;BME280;36494;50.730;-1.932;2023-04-10T10:59:54;100467.46;;;11.70;100.00
49645;BME280;36494;50.730;-1.932;2023-04-10T11:02:18;100472.80;;;11.77;100.00
49645;BME280;36494;50.730;-1.932;2023-04-10T11:04:42;100476.92;;;11.79;100.00
49645;BME280;36494;50.730;-1.932;2023-04-10T11:07:07;100465.05;;;11.97;100.00
49645;BME280;36494;50.730;-1.932;2023-04-10T11:09:43;100458.90;;;12.09;100.00
49645;BME280;36494;50.730;-1.932;2023-04-10T11:11:59;100460.98;;;12.30;100.00
49645;BME280;36494;50.730;-1.932;2023-04-10T11:14:24;100460.71;;;12.19;100.00
49645;BME280;36494;50.730;-1.932;2023-04-10T11:16:49;100458.47;;;12.35;100.00
49645;BME280;36494;50.730;-1.932;2023-04-10T11:19:15;100445.10;;;12.58;100.00
49645;BME280;36494;50.730;-1.932;2023-04-10T11:21:59;100433.45;;;12.49;100.00
49645;BME280;36494;50.730;-1.932;2023-04-10T11:24:06;100441.30;;;12.53;100.00
49645;BME280;36494;50.730;-1.932;2023-04-10T11:26:38;100438.24;;;12.61;100.00
49645;BME280;36494;50.730;-1.932;2023-04-10T11:28:56;100435.27;;;12.71;100.00
49645;BME280;36494;50.730;-1.932;2023-04-10T11:31:22;100428.72;;;12.82;100.00
49645;BME280;36494;50.730;-1.932;2023-04-10T11:33:48;100429.24;;;12.93;100.00
49645;BME280;36494;50.730;-1.932;2023-04-10T11:36:14;100437.83;;;12.86;100.00
49645;BME280;36494;50.730;-1.932;2023-04-10T11:38:37;100443.23;;;12.98;100.00
49645;BME280;36494;50.730;-1.932;2023-04-10T11:41:03;100444.99;;;13.00;100.00
49645;BME280;36494;50.730;-1.932;2023-04-10T11:43:29;100437.03;;;12.94;100.00
49645;BME280;36494;50.730;-1.932;2023-04-10T11:46:02;100434.59;;;13.15;100.00
49645;BME280;36494;50.730;-1.932;2023-04-10T11:48:20;100434.16;;;13.24;100.00
49645;BME280;36494;50.730;-1.932;2023-04-10T11:50:45;100423.74;;;13.48;100.00
49645;BME280;36494;50.730;-1.932;2023-04-10T11:53:17;100420.61;;;13.11;100.00
49645;BME280;36494;50.730;-1.932;2023-04-10T11:55:36;100419.64;;;13.08;100.00
49645;BME280;36494;50.730;-1.932;2023-04-10T11:58:01;100429.03;;;13.23;100.00
49645;BME280;36494;50.730;-1.932;2023-04-10T12:00:27;100428.64;;;13.50;100.00
49645;BME280;36494;50.730;-1.932;2023-04-10T12:02:52;100436.27;;;13.65;100.00
49645;BME280;36494;50.730;-1.932;2023-04-10T12:05:18;100439.10;;;13.61;100.00
49645;BME280;36494;50.730;-1.932;2023-04-10T12:07:44;100424.61;;;13.56;100.00
49645;BME280;36494;50.730;-1.932;2023-04-10T12:10:09;100426.51;;;13.62;100.00
49645;BME280;36494;50.730;-1.932;2023-04-10T12:12:35;100435.41;;;13.58;100.00
49645;BME280;36494;50.730;-1.932;2023-04-10T12:14:59;100439.72;;;13.90;100.00
49645;BME280;36494;50.730;-1.932;2023-04-10T12:17:25;100438.04;;;13.96;100.00
49645;BME280;36494;50.730;-1.932;2023-04-10T12:19:50;100427.78;;;14.01;100.00
49645;BME280;36494;50.730;-1.932;2023-04-10T12:22:15;100439.78;;;13.77;100.00
49645;BME280;36494;50.730;-1.932;2023-04-10T12:24:42;100444.29;;;13.97;100.00
49645;BME280;36494;50.730;-1.932;2023-04-10T12:27:06;100447.56;;;13.88;100.00